createdAt,value
2023-03-05T00:00:15.537Z,28.76
2023-03-05T00:02:42.024Z,27.84
2023-03-05T00:05:11.458Z,27.73
2023-03-05T00:07:37.856Z,29.03
2023-03-05T00:10:04.369Z,29.37
2023-03-05T00:12:30.780Z,28.67
2023-03-05T00:14:57.216Z,27.18
2023-03-05T00:17:23.633Z,26.01
2023-03-05T00:19:50.085Z,24.57
2023-03-05T00:22:16.551Z,25.66
2023-03-05T00:24:42.989Z,25.44
2023-03-05T00:27:09.417Z,26.29
2023-03-05T00:29:35.905Z,27.87
2023-03-05T00:32:02.439Z,30.99
2023-03-05T00:34:28.974Z,30.99
2023-03-05T00:36:55.370Z,30.15
2023-03-05T00:39:21.839Z,28.68
2023-03-05T00:41:48.276Z,29.81
2023-03-05T00:44:14.724Z,29.46
2023-03-05T00:46:41.559Z,29.88
2023-03-05T00:49:08.045Z,31.98
2023-03-05T00:51:34.481Z,29.65
2023-03-05T00:54:00.900Z,29.89
2023-03-05T00:56:27.301Z,30.36
2023-03-05T00:58:53.684Z,29.05
2023-03-05T01:01:20.218Z,28.31
2023-03-05T01:03:46.617Z,27.69
2023-03-05T01:06:13.019Z,26.13
2023-03-05T01:08:39.452Z,26.16
2023-03-05T01:11:05.911Z,27.47
2023-03-05T01:13:34.997Z,28.62
2023-03-05T01:16:01.486Z,30.36
2023-03-05T01:18:27.974Z,31.29
2023-03-05T01:20:54.576Z,30.49
2023-03-05T01:23:20.924Z,29.20
2023-03-05T01:25:47.290Z,28.69
2023-03-05T01:28:13.623Z,27.88
2023-03-05T01:30:40.047Z,28.34
2023-03-05T01:33:06.458Z,28.21
2023-03-05T01:35:33.016Z,28.30
2023-03-05T01:37:59.435Z,28.88
2023-03-05T01:40:25.848Z,29.26
2023-03-05T01:42:52.253Z,29.55
2023-03-05T01:45:18.670Z,30.09
2023-03-05T01:47:45.111Z,29.30
2023-03-05T01:50:12.596Z,28.45
2023-03-05T01:52:39.140Z,28.95
2023-03-05T01:55:05.538Z,28.07
2023-03-05T01:57:31.925Z,27.37
2023-03-05T01:59:58.290Z,27.87
2023-03-05T02:02:24.745Z,28.12
2023-03-05T02:04:51.220Z,29.80
2023-03-05T02:07:17.631Z,29.80
2023-03-05T02:09:43.998Z,28.76
2023-03-05T02:12:10.451Z,28.33
2023-03-05T02:14:36.792Z,28.30
2023-03-05T02:17:03.179Z,28.34
2023-03-05T02:19:29.721Z,27.92
2023-03-05T02:21:56.137Z,27.07
2023-03-05T02:24:22.539Z,27.65
2023-03-05T02:26:48.901Z,27.47
2023-03-05T02:29:16.022Z,33.47
2023-03-05T02:31:42.506Z,34.61
2023-03-05T02:34:08.931Z,30.84
2023-03-05T02:36:35.289Z,28.58
2023-03-05T02:39:02.663Z,29.29
2023-03-05T02:41:29.120Z,27.54
2023-03-05T02:43:55.459Z,27.64
2023-03-05T02:46:21.903Z,28.30
2023-03-05T02:48:48.483Z,29.08
2023-03-05T02:51:14.940Z,28.52
2023-03-05T02:53:41.332Z,28.85
2023-03-05T02:56:07.753Z,28.94
2023-03-05T02:58:34.397Z,29.17
2023-03-05T03:01:00.808Z,28.84
2023-03-05T03:03:27.223Z,28.68
2023-03-05T03:05:53.641Z,28.35
2023-03-05T03:08:20.223Z,28.97
2023-03-05T03:10:46.580Z,28.26
2023-03-05T03:13:12.954Z,28.19
2023-03-05T03:15:39.330Z,28.43
2023-03-05T03:18:05.718Z,28.87
2023-03-05T03:20:32.138Z,29.64
2023-03-05T03:22:58.504Z,29.15
2023-03-05T03:25:24.938Z,28.56
2023-03-05T03:27:51.481Z,29.03
2023-03-05T03:30:17.890Z,30.91
2023-03-05T03:32:44.310Z,30.31
2023-03-05T03:35:10.700Z,30.90
2023-03-05T03:37:37.277Z,31.17
2023-03-05T03:40:03.846Z,31.57
2023-03-05T03:42:30.328Z,30.98
2023-03-05T03:44:56.691Z,31.69
2023-03-05T03:47:23.048Z,31.59
2023-03-05T03:49:49.437Z,31.79
2023-03-05T03:52:15.803Z,31.60
2023-03-05T03:54:42.247Z,31.61
2023-03-05T03:57:08.625Z,31.50
2023-03-05T03:59:35.022Z,31.05
2023-03-05T04:02:01.437Z,32.04
2023-03-05T04:04:27.847Z,31.68
2023-03-05T04:06:54.260Z,30.68
2023-03-05T04:09:20.671Z,31.37
2023-03-05T04:11:47.071Z,30.27
2023-03-05T04:14:13.426Z,30.45
2023-03-05T04:16:39.766Z,32.70
2023-03-05T04:19:06.209Z,46.68
2023-03-05T04:21:32.635Z,39.85
2023-03-05T04:23:59.076Z,34.35
2023-03-05T04:26:25.574Z,32.51
2023-03-05T04:28:51.997Z,32.49
2023-03-05T04:31:18.441Z,32.66
2023-03-05T04:33:44.849Z,32.08
2023-03-05T04:36:11.265Z,31.93
2023-03-05T04:38:37.731Z,32.42
2023-03-05T04:41:04.107Z,33.47
2023-03-05T04:43:30.560Z,33.39
2023-03-05T04:45:56.994Z,34.99
2023-03-05T04:48:23.500Z,36.30
2023-03-05T04:50:49.858Z,34.01
2023-03-05T04:53:16.200Z,32.39
2023-03-05T04:55:42.551Z,32.61
2023-03-05T04:58:08.948Z,34.83
2023-03-05T05:00:35.357Z,34.44
2023-03-05T05:03:01.997Z,33.29
2023-03-05T05:05:28.396Z,32.64
2023-03-05T05:07:54.998Z,32.28
2023-03-05T05:10:21.420Z,32.16
2023-03-05T05:12:47.781Z,31.68
2023-03-05T05:15:14.174Z,31.25
2023-03-05T05:17:40.552Z,31.76
2023-03-05T05:20:06.926Z,31.45
2023-03-05T05:22:33.316Z,32.02
2023-03-05T05:24:59.662Z,31.93
2023-03-05T05:27:26.055Z,30.56
2023-03-05T05:29:52.419Z,31.58
2023-03-05T05:32:18.870Z,32.19
2023-03-05T05:34:45.250Z,32.09
2023-03-05T05:37:11.851Z,31.12
2023-03-05T05:39:38.399Z,31.69
2023-03-05T05:42:04.742Z,30.22
2023-03-05T05:44:31.099Z,31.93
2023-03-05T05:46:57.529Z,31.40
2023-03-05T05:49:23.872Z,31.85
2023-03-05T05:51:50.242Z,31.83
2023-03-05T05:54:16.662Z,31.61
2023-03-05T05:56:43.065Z,31.90
2023-03-05T05:59:09.737Z,31.81
2023-03-05T06:01:36.193Z,31.35
2023-03-05T06:04:02.744Z,30.38
2023-03-05T06:06:29.169Z,30.90
2023-03-05T06:08:55.574Z,30.96
2023-03-05T06:11:21.981Z,31.01
2023-03-05T06:13:48.357Z,31.55
2023-03-05T06:16:14.823Z,32.46
2023-03-05T06:18:41.252Z,31.82
2023-03-05T06:21:07.604Z,31.80
2023-03-05T06:23:33.958Z,32.51
2023-03-05T06:26:00.336Z,35.32
2023-03-05T06:28:26.720Z,35.51
2023-03-05T06:30:53.109Z,33.52
2023-03-05T06:33:21.674Z,31.98
2023-03-05T06:35:48.051Z,33.28
2023-03-05T06:38:14.467Z,33.12
2023-03-05T06:40:41.027Z,36.29
2023-03-05T06:43:07.567Z,35.39
2023-03-05T06:45:33.970Z,34.11
2023-03-05T06:48:00.428Z,31.29
2023-03-05T06:50:26.831Z,31.37
2023-03-05T06:52:53.215Z,31.21
2023-03-05T06:55:19.641Z,32.43
2023-03-05T06:57:46.017Z,32.69
2023-03-05T07:00:12.448Z,32.06
2023-03-05T07:02:41.263Z,31.45
2023-03-05T07:05:07.808Z,31.47
2023-03-05T07:07:34.190Z,32.42
2023-03-05T07:10:00.777Z,33.13
2023-03-05T07:12:27.219Z,32.42
2023-03-05T07:14:53.686Z,32.04
2023-03-05T07:17:20.135Z,32.55
2023-03-05T07:19:46.578Z,35.15
2023-03-05T07:22:12.945Z,34.46
2023-03-05T07:24:39.377Z,33.23
2023-03-05T07:27:05.780Z,31.94
2023-03-05T07:29:32.136Z,33.33
2023-03-05T07:32:01.063Z,32.05
2023-03-05T07:34:27.741Z,34.36
2023-03-05T07:36:54.243Z,39.42
2023-03-05T07:39:20.658Z,34.04
2023-03-05T07:41:47.009Z,32.73
2023-03-05T07:44:13.365Z,32.84
2023-03-05T07:46:39.840Z,33.17
2023-03-05T07:49:06.283Z,32.72
2023-03-05T07:51:32.626Z,32.66
2023-03-05T07:53:58.981Z,32.66
2023-03-05T07:56:25.316Z,32.01
2023-03-05T07:58:51.691Z,32.26
2023-03-05T08:01:18.058Z,34.69
2023-03-05T08:03:47.526Z,35.39
2023-03-05T08:06:14.010Z,33.37
2023-03-05T08:08:40.457Z,32.67
2023-03-05T08:11:09.232Z,33.04
2023-03-05T08:13:35.854Z,32.43
2023-03-05T08:16:04.652Z,32.74
2023-03-05T08:18:35.696Z,32.79
2023-03-05T08:21:05.499Z,33.03
2023-03-05T08:23:31.921Z,32.31
2023-03-05T08:25:58.391Z,33.38
2023-03-05T08:28:26.336Z,33.11
2023-03-05T08:30:52.721Z,33.78
2023-03-05T08:33:25.930Z,34.07
2023-03-05T08:35:52.387Z,33.97
2023-03-05T08:38:21.014Z,34.03
2023-03-05T08:40:50.576Z,34.53
2023-03-05T08:43:23.927Z,34.16
2023-03-05T08:45:50.335Z,35.45
2023-03-05T08:48:16.711Z,36.29
2023-03-05T08:50:43.079Z,36.11
2023-03-05T08:53:09.480Z,36.49
2023-03-05T08:55:35.948Z,37.16
2023-03-05T08:58:02.396Z,37.82
2023-03-05T09:00:28.781Z,37.18
2023-03-05T09:02:55.342Z,38.20
2023-03-05T09:05:21.862Z,37.52
2023-03-05T09:07:48.258Z,37.21
2023-03-05T09:10:14.693Z,38.11
2023-03-05T09:12:41.085Z,38.95
2023-03-05T09:15:07.560Z,38.37
2023-03-05T09:17:33.952Z,40.27
2023-03-05T09:20:00.390Z,40.37
2023-03-05T09:22:26.808Z,40.88
2023-03-05T09:24:53.237Z,39.93
2023-03-05T09:27:19.682Z,39.00
2023-03-05T09:29:50.918Z,39.59
2023-03-05T09:32:17.400Z,39.37
2023-03-05T09:35:10.703Z,39.54
2023-03-05T09:37:33.913Z,39.02
2023-03-05T09:40:00.342Z,40.06
2023-03-05T09:42:26.746Z,39.24
2023-03-05T09:44:54.827Z,39.32
2023-03-05T09:47:21.361Z,39.61
2023-03-05T09:49:47.884Z,40.33
2023-03-05T09:52:14.356Z,40.73
2023-03-05T09:54:40.797Z,40.67
2023-03-05T09:57:07.245Z,41.29
2023-03-05T09:59:35.701Z,40.74
2023-03-05T10:02:02.101Z,40.80
2023-03-05T10:04:28.609Z,40.60
2023-03-05T10:06:57.243Z,41.39
2023-03-05T10:09:23.741Z,40.50
2023-03-05T10:11:51.167Z,41.30
2023-03-05T10:14:17.689Z,41.35
2023-03-05T10:16:44.274Z,41.89
2023-03-05T10:19:12.990Z,41.31
2023-03-05T10:21:42.179Z,41.44
2023-03-05T10:24:08.637Z,41.20
2023-03-05T10:26:35.122Z,41.46
2023-03-05T10:29:01.609Z,41.23
2023-03-05T10:31:28.187Z,41.59
2023-03-05T10:33:54.652Z,41.63
2023-03-05T10:36:21.395Z,41.73
2023-03-05T10:38:47.964Z,41.44
2023-03-05T10:41:14.463Z,41.21
2023-03-05T10:43:40.880Z,41.18
2023-03-05T10:46:07.397Z,41.70
2023-03-05T10:48:33.888Z,41.35
2023-03-05T10:51:00.384Z,41.20
2023-03-05T10:53:26.859Z,41.12
2023-03-05T10:55:53.271Z,41.48
2023-03-05T10:58:22.547Z,41.33
2023-03-05T11:00:50.789Z,41.66
2023-03-05T11:03:23.317Z,42.38
2023-03-05T11:05:49.747Z,42.74
2023-03-05T11:08:18.916Z,41.37
2023-03-05T11:10:45.363Z,41.49
2023-03-05T11:13:11.816Z,41.22
2023-03-05T11:15:38.351Z,41.13
2023-03-05T11:18:04.683Z,41.33
2023-03-05T11:20:31.117Z,40.30
2023-03-05T11:22:57.525Z,40.97
2023-03-05T11:25:23.982Z,40.13
2023-03-05T11:27:51.998Z,40.18
2023-03-05T11:30:20.154Z,40.46
2023-03-05T11:32:46.594Z,40.68
2023-03-05T11:35:13.024Z,40.00
2023-03-05T11:37:39.512Z,39.91
2023-03-05T11:40:05.946Z,39.78
2023-03-05T11:42:33.725Z,39.81
2023-03-05T11:45:00.284Z,39.46
2023-03-05T11:47:26.694Z,39.69
2023-03-05T11:49:53.243Z,39.48
2023-03-05T11:52:20.691Z,39.70
2023-03-05T11:54:47.112Z,39.59
2023-03-05T11:57:13.551Z,40.01
2023-03-05T11:59:40.112Z,39.10
2023-03-05T12:02:06.574Z,39.51
2023-03-05T12:04:33.183Z,40.25
2023-03-05T12:06:59.578Z,39.70
2023-03-05T12:09:26.086Z,40.15
2023-03-05T12:11:53.739Z,39.65
2023-03-05T12:14:20.252Z,39.98
2023-03-05T12:16:46.667Z,39.57
2023-03-05T12:19:13.069Z,40.15
2023-03-05T12:21:39.546Z,39.75
2023-03-05T12:24:06.007Z,39.59
2023-03-05T12:26:32.504Z,39.84
2023-03-05T12:28:58.949Z,39.52
2023-03-05T12:31:25.493Z,39.21
2023-03-05T12:33:51.989Z,39.31
2023-03-05T12:36:18.415Z,39.37
2023-03-05T12:38:45.158Z,40.08
2023-03-05T12:41:11.619Z,40.11
2023-03-05T12:43:38.067Z,40.24
2023-03-05T12:46:04.444Z,41.65
2023-03-05T12:48:30.932Z,41.51
2023-03-05T12:50:57.377Z,42.67
2023-03-05T12:53:23.891Z,41.53
2023-03-05T12:55:50.361Z,42.35
2023-03-05T12:58:16.803Z,40.76
2023-03-05T13:00:43.230Z,41.04
2023-03-05T13:03:09.621Z,40.79
2023-03-05T13:05:36.041Z,41.18
2023-03-05T13:08:02.449Z,41.14
2023-03-05T13:10:28.890Z,41.82
2023-03-05T13:12:55.310Z,40.83
2023-03-05T13:15:21.866Z,41.80
2023-03-05T13:17:48.272Z,41.64
2023-03-05T13:20:14.744Z,41.78
2023-03-05T13:22:41.257Z,41.87
2023-03-05T13:25:07.681Z,42.14
2023-03-05T13:27:34.112Z,42.46
2023-03-05T13:30:00.597Z,42.28
2023-03-05T13:32:27.062Z,42.34
2023-03-05T13:34:53.485Z,42.96
2023-03-05T13:37:19.958Z,42.21
2023-03-05T13:39:46.408Z,42.76
2023-03-05T13:42:12.837Z,42.98
2023-03-05T13:44:39.475Z,43.00
2023-03-05T13:47:05.915Z,42.44
2023-03-05T13:49:32.610Z,43.65
2023-03-05T13:51:59.011Z,42.84
2023-03-05T13:54:25.528Z,43.68
2023-03-05T13:56:51.949Z,43.17
2023-03-05T13:59:22.364Z,43.98
2023-03-05T14:01:48.819Z,43.79
2023-03-05T14:04:15.618Z,42.71
2023-03-05T14:06:42.113Z,43.15
2023-03-05T14:09:08.644Z,42.33
2023-03-05T14:11:35.144Z,43.52
2023-03-05T14:14:01.728Z,43.02
2023-03-05T14:16:28.271Z,43.82
2023-03-05T14:18:54.857Z,42.97
2023-03-05T14:21:21.331Z,43.02
2023-03-05T14:23:47.853Z,43.12
2023-03-05T14:26:14.467Z,42.94
2023-03-05T14:28:40.885Z,42.66
2023-03-05T14:31:08.624Z,42.27
2023-03-05T14:33:35.127Z,42.24
2023-03-05T14:36:01.724Z,41.44
2023-03-05T14:38:31.133Z,41.78
2023-03-05T14:40:57.587Z,41.70
2023-03-05T14:43:24.056Z,43.86
2023-03-05T14:45:50.607Z,43.80
2023-03-05T14:48:17.036Z,44.73
2023-03-05T14:50:43.453Z,43.67
2023-03-05T14:53:09.944Z,42.87
2023-03-05T14:55:36.408Z,43.32
2023-03-05T14:58:02.899Z,41.28
2023-03-05T15:00:29.383Z,40.37
2023-03-05T15:02:55.919Z,41.00
2023-03-05T15:05:22.423Z,39.97
2023-03-05T15:07:49.037Z,39.51
2023-03-05T15:10:15.485Z,40.56
2023-03-05T15:12:41.921Z,39.06
2023-03-05T15:15:08.410Z,37.74
2023-03-05T15:17:39.312Z,39.47
2023-03-05T15:20:05.773Z,41.45
2023-03-05T15:22:32.266Z,39.48
2023-03-05T15:24:58.721Z,38.52
2023-03-05T15:27:25.332Z,39.34
2023-03-05T15:29:51.803Z,38.66
2023-03-05T15:32:18.404Z,39.60
2023-03-05T15:34:44.948Z,39.22
2023-03-05T15:37:11.425Z,40.06
2023-03-05T15:39:37.815Z,40.67
2023-03-05T15:42:06.324Z,40.20
2023-03-05T15:44:32.949Z,38.73
2023-03-05T15:46:59.593Z,38.18
2023-03-05T15:49:26.023Z,37.46
2023-03-05T15:51:52.666Z,38.30
2023-03-05T15:54:19.067Z,40.02
2023-03-05T15:56:45.515Z,40.19
2023-03-05T15:59:11.950Z,38.56
2023-03-05T16:01:38.435Z,38.52
2023-03-05T16:04:04.900Z,39.50
2023-03-05T16:06:31.487Z,40.20
2023-03-05T16:08:57.886Z,39.41
2023-03-05T16:11:24.351Z,38.89
2023-03-05T16:13:50.766Z,38.89
2023-03-05T16:16:17.432Z,38.70
2023-03-05T16:18:43.966Z,39.28
2023-03-05T16:21:10.356Z,40.18
2023-03-05T16:23:39.366Z,39.16
2023-03-05T16:26:05.834Z,38.98
2023-03-05T16:28:32.228Z,39.63
2023-03-05T16:30:58.673Z,39.95
2023-03-05T16:33:25.081Z,40.05
2023-03-05T16:35:51.525Z,39.65
2023-03-05T16:38:17.927Z,39.84
2023-03-05T16:41:06.969Z,40.19
2023-03-05T16:43:30.887Z,39.50
2023-03-05T16:45:57.259Z,39.02
2023-03-05T16:48:23.694Z,41.71
2023-03-05T16:50:50.122Z,39.39
2023-03-05T16:53:16.667Z,39.37
2023-03-05T16:55:43.074Z,39.35
2023-03-05T16:58:09.547Z,38.83
2023-03-05T17:00:35.996Z,38.62
2023-03-05T17:03:02.446Z,38.37
2023-03-05T17:05:28.943Z,38.30
2023-03-05T17:07:55.739Z,39.20
2023-03-05T17:10:22.381Z,39.03
2023-03-05T17:12:48.815Z,38.49
2023-03-05T17:15:15.262Z,38.95
2023-03-05T17:17:41.711Z,40.74
2023-03-05T17:20:08.138Z,39.91
2023-03-05T17:22:34.564Z,40.75
2023-03-05T17:25:00.984Z,41.17
2023-03-05T17:27:27.495Z,40.62
2023-03-05T17:29:54.048Z,40.46
2023-03-05T17:32:20.422Z,39.81
2023-03-05T17:34:46.947Z,40.37
2023-03-05T17:37:13.424Z,39.92
2023-03-05T17:39:39.943Z,41.32
2023-03-05T17:42:06.414Z,40.48
2023-03-05T17:44:32.856Z,42.88
2023-03-05T17:47:02.160Z,42.88
2023-03-05T17:49:28.739Z,47.64
2023-03-05T17:51:56.724Z,42.43
2023-03-05T17:54:23.176Z,40.76
2023-03-05T17:56:49.680Z,43.56
2023-03-05T17:59:17.278Z,45.20
2023-03-05T18:01:43.714Z,43.47
2023-03-05T18:04:11.490Z,41.88
2023-03-05T18:06:38.046Z,40.54
2023-03-05T18:09:04.469Z,41.31
2023-03-05T18:11:30.903Z,45.97
2023-03-05T18:14:00.321Z,51.50
2023-03-05T18:16:33.931Z,49.91
2023-03-05T18:19:00.423Z,48.51
2023-03-05T18:21:27.708Z,46.19
2023-03-05T18:23:54.274Z,45.47
2023-03-05T18:26:20.672Z,43.05
2023-03-05T18:28:47.084Z,43.78
2023-03-05T18:31:13.543Z,47.94
2023-03-05T18:33:40.010Z,53.61
2023-03-05T18:36:06.449Z,55.89
2023-03-05T18:38:33.023Z,55.23
2023-03-05T18:40:59.495Z,50.40
2023-03-05T18:43:25.953Z,44.94
2023-03-05T18:45:52.468Z,41.81
2023-03-05T18:48:18.955Z,41.10
2023-03-05T18:50:45.400Z,39.47
2023-03-05T18:53:11.786Z,39.46
2023-03-05T18:55:38.282Z,38.72
2023-03-05T18:58:06.868Z,39.34
2023-03-05T19:00:33.296Z,39.94
2023-03-05T19:02:59.742Z,43.94
2023-03-05T19:05:26.261Z,44.97
2023-03-05T19:07:52.718Z,42.69
2023-03-05T19:10:19.172Z,42.12
2023-03-05T19:12:45.616Z,40.49
2023-03-05T19:15:12.057Z,41.91
2023-03-05T19:17:38.519Z,49.48
2023-03-05T19:20:04.939Z,44.50
2023-03-05T19:22:31.425Z,41.09
2023-03-05T19:24:57.773Z,38.89
2023-03-05T19:27:24.235Z,36.15
2023-03-05T19:29:50.638Z,32.88
2023-03-05T19:32:17.326Z,29.69
2023-03-05T19:34:43.802Z,28.95
2023-03-05T19:37:10.235Z,28.66
2023-03-05T19:39:36.673Z,26.45
2023-03-05T19:42:03.093Z,24.83
2023-03-05T19:44:29.458Z,25.84
2023-03-05T19:46:55.878Z,25.44
2023-03-05T19:49:22.244Z,25.62
2023-03-05T19:51:48.611Z,25.27
2023-03-05T19:54:15.048Z,24.52
2023-03-05T19:56:41.460Z,23.67
2023-03-05T19:59:07.917Z,22.95
2023-03-05T20:01:34.366Z,23.17
2023-03-05T20:04:00.839Z,24.36
2023-03-05T20:06:27.217Z,24.56
2023-03-05T20:08:53.581Z,23.20
2023-03-05T20:11:20.079Z,23.24
2023-03-05T20:13:46.528Z,27.10
2023-03-05T20:16:13.065Z,31.05
2023-03-05T20:18:39.493Z,33.59
2023-03-05T20:21:05.883Z,32.69
2023-03-05T20:23:32.317Z,32.63
2023-03-05T20:25:58.734Z,33.60
2023-03-05T20:28:25.179Z,36.34
2023-03-05T20:30:51.550Z,37.49
2023-03-05T20:33:17.942Z,36.29
2023-03-05T20:35:44.329Z,36.31
2023-03-05T20:38:13.102Z,35.17
2023-03-05T20:40:39.545Z,36.55
2023-03-05T20:43:05.988Z,37.13
2023-03-05T20:45:32.449Z,36.42
2023-03-05T20:47:58.881Z,36.48
2023-03-05T20:50:25.289Z,38.32
2023-03-05T20:52:51.712Z,37.93
2023-03-05T20:55:18.141Z,41.09
2023-03-05T20:57:44.566Z,41.08
2023-03-05T21:00:10.929Z,39.88
2023-03-05T21:02:37.327Z,38.73
2023-03-05T21:05:03.738Z,38.47
2023-03-05T21:07:30.233Z,34.74
2023-03-05T21:09:56.746Z,35.21
2023-03-05T21:12:23.198Z,35.67
2023-03-05T21:14:49.600Z,34.57
2023-03-05T21:17:15.925Z,33.21
2023-03-05T21:19:42.283Z,34.01
2023-03-05T21:22:08.713Z,34.03
2023-03-05T21:24:35.277Z,33.64
2023-03-05T21:27:01.979Z,33.89
2023-03-05T21:29:28.435Z,35.62
2023-03-05T21:31:54.982Z,36.27
2023-03-05T21:34:21.485Z,36.35
2023-03-05T21:36:47.930Z,37.36
2023-03-05T21:39:14.501Z,35.77
2023-03-05T21:41:41.034Z,34.94
2023-03-05T21:44:07.425Z,33.84
2023-03-05T21:46:33.792Z,33.02
2023-03-05T21:49:00.395Z,31.40
2023-03-05T21:51:26.795Z,28.91
2023-03-05T21:53:53.151Z,27.98
2023-03-05T21:56:19.695Z,27.09
2023-03-05T21:58:46.141Z,27.58
2023-03-05T22:01:12.665Z,27.15
2023-03-05T22:03:39.336Z,27.17
2023-03-05T22:06:05.862Z,26.83
2023-03-05T22:08:32.399Z,28.13
2023-03-05T22:10:59.384Z,28.71
2023-03-05T22:13:25.870Z,27.39
2023-03-05T22:15:52.399Z,27.95
2023-03-05T22:18:18.899Z,27.24
2023-03-05T22:20:48.530Z,27.55
2023-03-05T22:23:14.933Z,27.33
2023-03-05T22:25:44.048Z,27.22
2023-03-05T22:28:13.533Z,25.45
2023-03-05T22:30:41.699Z,25.81
2023-03-05T22:33:08.239Z,25.64
2023-03-05T22:35:34.742Z,25.75
2023-03-05T22:38:01.149Z,27.02
2023-03-05T22:40:27.758Z,25.87
2023-03-05T22:42:56.442Z,24.89
2023-03-05T22:45:24.779Z,25.76
2023-03-05T22:47:51.258Z,27.36
2023-03-05T22:50:17.692Z,27.21
2023-03-05T22:52:45.557Z,27.27
2023-03-05T22:55:12.072Z,26.01
2023-03-05T22:57:38.548Z,25.18
2023-03-05T23:00:08.170Z,26.20
2023-03-05T23:02:34.685Z,27.08
2023-03-05T23:05:01.098Z,26.68
2023-03-05T23:07:27.670Z,28.51
2023-03-05T23:09:54.133Z,30.89
2023-03-05T23:12:20.599Z,30.18
2023-03-05T23:14:48.113Z,33.66
2023-03-05T23:17:14.541Z,35.90
2023-03-05T23:19:40.942Z,36.57
2023-03-05T23:22:07.382Z,34.72
2023-03-05T23:24:33.792Z,33.98
2023-03-05T23:27:00.241Z,34.77
2023-03-05T23:29:26.821Z,34.36
2023-03-05T23:31:53.258Z,32.89
2023-03-05T23:34:19.860Z,33.55
2023-03-05T23:36:46.244Z,35.14
2023-03-05T23:39:12.718Z,36.63
2023-03-05T23:41:39.158Z,34.01
2023-03-05T23:44:05.593Z,34.03
2023-03-05T23:46:32.039Z,33.00
2023-03-05T23:48:58.582Z,31.25
2023-03-05T23:51:24.995Z,29.87
2023-03-05T23:53:51.541Z,29.21
2023-03-05T23:56:18.043Z,29.21
2023-03-05T23:58:44.480Z,29.89
